Time;durP1;ratioP1;P1;durP2;ratioP2;P2;SDS_P1;SDS_P2;PMS_P1;PMS_P2;Temp;Humidity;BMP_temperature;BMP_pressure;BME280_temperature;BME280_humidity;BME280_pressure;Samples;Min_cycle;Max_cycle;Signal;HPM_P1;HPM_P2
2024/03/22 00:01:52;;;;;;;12.25;5.00;;;10.30;99.90;;;;;;5088769;28;20028;-65
2024/03/22 00:04:18;;;;;;;9.00;4.65;;;10.30;99.90;;;;;;5088290;28;20036;-64
2024/03/22 00:06:45;;;;;;;10.33;3.87;;;10.30;99.90;;;;;;5088544;28;20490;-67
2024/03/22 00:09:11;;;;;;;6.95;4.00;;;10.40;99.90;;;;;;5088349;28;20024;-67
2024/03/22 00:11:39;;;;;;;9.35;4.47;;;10.40;99.90;;;;;;5087777;28;20069;-68
2024/03/22 00:14:05;;;;;;;10.50;4.85;;;10.40;99.90;;;;;;5088141;28;20055;-70
2024/03/22 00:16:31;;;;;;;6.25;4.50;;;10.40;99.90;;;;;;5087648;28;20601;-69
2024/03/22 00:18:56;;;;;;;20.03;4.93;;;10.40;99.90;;;;;;5087828;28;20487;-65
2024/03/22 00:21:23;;;;;;;6.37;4.27;;;10.30;99.90;;;;;;5087868;28;20487;-65
2024/03/22 00:23:49;;;;;;;7.25;4.40;;;10.30;99.90;;;;;;5087988;28;20489;-69
2024/03/22 00:26:15;;;;;;;9.17;4.70;;;10.20;99.90;;;;;;5087422;28;20068;-70
2024/03/22 00:28:40;;;;;;;7.03;4.25;;;10.30;99.90;;;;;;5087390;28;20024;-70
2024/03/22 00:31:08;;;;;;;9.37;4.20;;;10.30;99.90;;;;;;5087134;28;20066;-67
2024/03/22 00:33:34;;;;;;;7.93;4.57;;;10.30;99.90;;;;;;5087285;28;20028;-68
2024/03/22 00:35:59;;;;;;;6.73;4.43;;;10.30;99.90;;;;;;5086242;28;20484;-66
2024/03/22 00:38:25;;;;;;;9.07;4.50;;;10.20;99.90;;;;;;5087936;28;20086;-69
2024/03/22 00:40:51;;;;;;;17.47;4.90;;;10.20;99.90;;;;;;5088023;28;20024;-64
2024/03/22 00:43:16;;;;;;;12.48;4.95;;;10.20;99.90;;;;;;5087310;28;20028;-65
2024/03/22 00:45:42;;;;;;;7.93;4.10;;;10.20;99.90;;;;;;5087030;28;20503;-71
2024/03/22 00:48:08;;;;;;;9.40;4.80;;;10.30;99.90;;;;;;5087212;28;20099;-66
2024/03/22 00:50:33;;;;;;;10.63;4.37;;;10.30;99.90;;;;;;5087454;28;20093;-67
2024/03/22 00:52:59;;;;;;;6.43;4.45;;;10.20;99.90;;;;;;5087457;28;20074;-68
2024/03/22 00:55:25;;;;;;;11.47;4.77;;;10.20;99.90;;;;;;5087637;28;20162;-68
2024/03/22 00:57:51;;;;;;;7.87;4.13;;;10.30;99.90;;;;;;5087375;28;20098;-72
2024/03/22 01:00:17;;;;;;;7.10;3.92;;;10.30;99.90;;;;;;5087055;28;20028;-63
2024/03/22 01:02:44;;;;;;;9.43;4.38;;;10.20;99.90;;;;;;5087110;28;20510;-64
2024/03/22 01:05:09;;;;;;;;;;;10.20;99.90;;;;;;5087573;28;20404;-72
2024/03/22 01:07:36;;;;;;;14.70;4.32;;;10.30;99.90;;;;;;5086532;28;19912;-67
2024/03/22 01:10:02;;;;;;;9.77;4.70;;;10.30;99.90;;;;;;5085838;28;20048;-64
2024/03/22 01:12:28;;;;;;;8.40;3.80;;;10.30;99.90;;;;;;5088174;28;20428;-68
2024/03/22 01:14:54;;;;;;;18.97;4.97;;;10.20;99.90;;;;;;5085940;28;20039;-65
2024/03/22 01:17:20;;;;;;;6.68;4.20;;;10.20;99.90;;;;;;5086555;28;20019;-64
2024/03/22 01:19:45;;;;;;;7.50;4.43;;;10.20;99.90;;;;;;5086824;28;20032;-64
2024/03/22 01:22:11;;;;;;;7.03;4.10;;;10.10;99.90;;;;;;5086685;28;20465;-64
2024/03/22 01:24:36;;;;;;;16.83;5.10;;;10.10;99.90;;;;;;5086579;28;20036;-69
2024/03/22 01:27:02;;;;;;;11.43;5.20;;;10.10;99.90;;;;;;5086675;28;20039;-68
2024/03/22 01:29:30;;;;;;;9.10;4.80;;;10.10;99.90;;;;;;5086806;28;20024;-66
2024/03/22 01:31:59;;;;;;;9.55;4.38;;;10.10;99.90;;;;;;5086379;28;20039;-64
2024/03/22 01:34:25;;;;;;;11.20;5.35;;;10.10;99.90;;;;;;5086590;28;20028;-66
2024/03/22 01:36:53;;;;;;;6.60;4.50;;;10.10;99.90;;;;;;5086446;28;20100;-70
2024/03/22 01:39:23;;;;;;;9.40;4.78;;;10.10;99.90;;;;;;5086344;28;20420;-63
2024/03/22 01:41:49;;;;;;;10.82;5.07;;;10.20;99.90;;;;;;5086596;28;20039;-70
2024/03/22 01:44:15;;;;;;;9.77;4.35;;;10.20;99.90;;;;;;5086620;28;20098;-65
2024/03/22 01:46:42;;;;;;;9.80;4.93;;;10.20;99.90;;;;;;5085479;28;20029;-68
2024/03/22 01:49:13;;;;;;;17.42;4.90;;;10.10;99.90;;;;;;5086645;28;20028;-64
2024/03/22 01:51:40;;;;;;;7.32;4.53;;;10.10;99.90;;;;;;5085954;28;20847;-67
2024/03/22 01:54:09;;;;;;;6.85;3.92;;;10.00;99.90;;;;;;5085086;28;20081;-66
2024/03/22 01:56:37;;;;;;;13.90;5.18;;;10.00;99.90;;;;;;5086636;28;20024;-64
2024/03/22 01:59:04;;;;;;;9.15;4.88;;;10.00;99.90;;;;;;5086483;28;20024;-65
2024/03/22 02:01:30;;;;;;;6.65;4.22;;;10.00;99.90;;;;;;5085911;28;20122;-64
2024/03/22 02:03:55;;;;;;;7.85;4.50;;;10.10;99.90;;;;;;5085447;28;20507;-64
2024/03/22 02:06:21;;;;;;;7.40;4.70;;;10.10;99.90;;;;;;5085539;28;20208;-64
2024/03/22 02:08:47;;;;;;;9.37;5.00;;;10.00;99.90;;;;;;5085290;28;20016;-64
2024/03/22 02:11:13;;;;;;;9.25;5.38;;;10.00;99.90;;;;;;5085384;28;20130;-64
2024/03/22 02:13:39;;;;;;;11.18;4.70;;;10.00;99.90;;;;;;5085225;28;20050;-63
2024/03/22 02:16:05;;;;;;;8.37;4.70;;;10.00;99.90;;;;;;5085729;28;20028;-65
2024/03/22 02:18:30;;;;;;;8.52;4.60;;;10.00;99.90;;;;;;5085609;28;20058;-68
2024/03/22 02:20:59;;;;;;;9.80;4.60;;;9.90;99.90;;;;;;5085585;28;20096;-64
2024/03/22 02:23:34;;;;;;;11.02;5.00;;;10.00;99.90;;;;;;5085658;28;20488;-68
2024/03/22 02:26:01;;;;;;;11.05;4.57;;;10.00;99.90;;;;;;5085403;28;20040;-70
2024/03/22 02:28:27;;;;;;;14.95;4.90;;;10.10;99.90;;;;;;5085508;28;20024;-69
2024/03/22 02:30:52;;;;;;;9.97;4.70;;;10.10;99.90;;;;;;5085291;28;20038;-65
2024/03/22 02:33:18;;;;;;;12.83;5.20;;;10.10;99.90;;;;;;5085262;28;20032;-70
2024/03/22 02:35:46;;;;;;;7.35;4.47;;;10.10;99.90;;;;;;5085326;28;20024;-70
2024/03/22 02:38:12;;;;;;;8.63;4.45;;;10.00;99.90;;;;;;5085167;28;20035;-67
2024/03/22 02:40:37;;;;;;;8.83;4.37;;;10.00;99.90;;;;;;5085611;28;20032;-71
2024/03/22 02:43:03;;;;;;;7.97;4.53;;;10.00;99.90;;;;;;5085178;28;20504;-65
2024/03/22 02:45:30;;;;;;;7.40;4.33;;;10.00;99.90;;;;;;5086554;28;20075;-70
2024/03/22 02:47:56;;;;;;;8.73;5.05;;;10.00;99.90;;;;;;5088128;28;20270;-71
2024/03/22 02:50:21;;;;;;;12.10;5.00;;;9.90;99.90;;;;;;5086600;28;20047;-67
2024/03/22 02:52:48;;;;;;;9.13;4.63;;;9.90;99.90;;;;;;5084702;28;20084;-66
2024/03/22 02:55:14;;;;;;;8.73;5.15;;;10.00;99.90;;;;;;5084780;28;20028;-69
2024/03/22 02:57:40;;;;;;;9.07;4.40;;;9.90;99.90;;;;;;5086124;28;20054;-64
2024/03/22 03:00:06;;;;;;;7.97;4.07;;;9.90;99.90;;;;;;5091184;28;20089;-64
2024/03/22 03:02:31;;;;;;;10.07;4.95;;;9.90;99.90;;;;;;5091236;28;20050;-63
2024/03/22 03:04:57;;;;;;;9.77;5.43;;;10.00;99.90;;;;;;5091379;28;20503;-64
2024/03/22 03:07:27;;;;;;;10.80;4.97;;;9.90;99.90;;;;;;5091902;28;20024;-64
2024/03/22 03:09:53;;;;;;;9.13;4.07;;;10.00;99.90;;;;;;5091907;28;20783;-64
2024/03/22 03:12:19;;;;;;;20.25;5.43;;;9.90;99.90;;;;;;5091894;28;20051;-65
2024/03/22 03:14:44;;;;;;;14.20;4.67;;;10.00;99.90;;;;;;5091957;28;20099;-64
2024/03/22 03:17:10;;;;;;;9.37;4.47;;;10.00;99.90;;;;;;5092099;28;20123;-63
2024/03/22 03:19:36;;;;;;;12.77;4.47;;;10.00;99.90;;;;;;5091361;28;20027;-65
2024/03/22 03:22:02;;;;;;;15.30;5.10;;;9.90;99.90;;;;;;5090385;28;20393;-64
2024/03/22 03:24:28;;;;;;;7.18;4.80;;;9.90;99.90;;;;;;5091248;28;20104;-63
2024/03/22 03:26:53;;;;;;;8.53;4.57;;;9.90;99.90;;;;;;5091787;28;20554;-63
2024/03/22 03:29:19;;;;;;;9.43;4.83;;;10.00;99.90;;;;;;5091311;28;20403;-64
2024/03/22 03:31:45;;;;;;;9.15;5.00;;;10.00;99.90;;;;;;5091579;28;20106;-69
2024/03/22 03:34:10;;;;;;;11.93;5.47;;;9.90;99.90;;;;;;5091018;28;20224;-67
2024/03/22 03:36:36;;;;;;;8.30;4.43;;;9.90;99.90;;;;;;5091544;28;20495;-64
2024/03/22 03:39:02;;;;;;;15.27;5.50;;;9.90;99.90;;;;;;5091570;28;20028;-66
2024/03/22 03:41:28;;;;;;;8.13;5.03;;;9.90;99.90;;;;;;5090146;28;20028;-65
2024/03/22 03:43:53;;;;;;;13.63;4.80;;;10.00;99.90;;;;;;5091492;28;20078;-64
2024/03/22 03:46:19;;;;;;;8.77;4.77;;;10.00;99.90;;;;;;5091604;28;20109;-69
2024/03/22 03:48:44;;;;;;;13.90;5.20;;;9.90;99.90;;;;;;5091327;28;20024;-69
2024/03/22 03:51:10;;;;;;;8.30;4.80;;;9.90;99.90;;;;;;5091967;28;20509;-72
2024/03/22 03:53:35;;;;;;;13.27;4.97;;;9.90;99.90;;;;;;5091473;28;20036;-66
2024/03/22 03:56:01;;;;;;;6.80;4.80;;;9.90;99.90;;;;;;5091672;28;20102;-64
2024/03/22 03:58:27;;;;;;;11.23;4.93;;;9.80;99.90;;;;;;5091175;28;20107;-67
2024/03/22 04:00:52;;;;;;;13.53;5.37;;;9.90;99.90;;;;;;5091426;28;20035;-64
2024/03/22 04:03:19;;;;;;;8.97;5.47;;;9.80;99.90;;;;;;5091617;28;20021;-69
2024/03/22 04:05:44;;;;;;;10.93;5.20;;;9.80;99.90;;;;;;5091965;28;20085;-63
2024/03/22 04:08:10;;;;;;;12.80;5.43;;;9.80;99.90;;;;;;5091856;28;20040;-65
2024/03/22 04:10:35;;;;;;;8.67;4.47;;;9.80;99.90;;;;;;5087452;28;20043;-69
2024/03/22 04:13:01;;;;;;;12.10;5.00;;;9.80;99.90;;;;;;5104162;28;20020;-64
2024/03/22 04:15:26;;;;;;;13.27;5.07;;;9.80;99.90;;;;;;5087561;28;20059;-63
2024/03/22 04:17:53;;;;;;;9.90;5.00;;;9.90;99.90;;;;;;5087936;28;20046;-63
2024/03/22 04:20:18;;;;;;;8.93;5.22;;;9.90;99.90;;;;;;5088148;28;20533;-66
2024/03/22 04:22:44;;;;;;;13.57;4.97;;;9.90;99.90;;;;;;5089425;28;20032;-66
2024/03/22 04:25:09;;;;;;;10.43;4.83;;;9.80;99.90;;;;;;5088719;28;20567;-67
2024/03/22 04:27:38;;;;;;;11.90;4.77;;;9.80;99.90;;;;;;5087917;28;20110;-64
2024/03/22 04:30:03;;;;;;;10.23;5.15;;;9.70;99.90;;;;;;5087735;28;20110;-67
2024/03/22 04:32:29;;;;;;;9.82;4.43;;;9.80;99.90;;;;;;5087635;28;20028;-68
2024/03/22 04:34:55;;;;;;;10.40;4.93;;;9.70;99.90;;;;;;5087238;28;20072;-69
2024/03/22 04:37:21;;;;;;;14.53;5.30;;;9.60;99.90;;;;;;5087776;28;20055;-72
2024/03/22 04:39:47;;;;;;;8.93;4.82;;;9.70;99.90;;;;;;5087193;28;20419;-70
2024/03/22 04:42:12;;;;;;;11.43;4.83;;;9.70;99.90;;;;;;5087182;28;20032;-69
2024/03/22 04:44:38;;;;;;;13.67;6.17;;;9.70;99.90;;;;;;5087203;28;20286;-68
2024/03/22 04:47:03;;;;;;;13.40;4.97;;;9.60;99.90;;;;;;5087705;28;20467;-72
2024/03/22 04:49:29;;;;;;;12.20;5.37;;;9.60;99.90;;;;;;5087269;28;20036;-65
2024/03/22 04:51:55;;;;;;;13.47;5.10;;;9.40;99.90;;;;;;5087020;28;20088;-64
2024/03/22 04:54:20;;;;;;;11.23;4.93;;;9.50;99.90;;;;;;5087426;28;20054;-66
2024/03/22 04:56:46;;;;;;;9.67;5.47;;;9.50;99.90;;;;;;5087904;28;20688;-64
2024/03/22 04:59:11;;;;;;;9.47;5.47;;;9.40;99.90;;;;;;5087370;28;20093;-63
2024/03/22 05:01:37;;;;;;;13.00;5.50;;;9.40;99.90;;;;;;5087751;28;20518;-65
2024/03/22 05:04:03;;;;;;;13.37;5.30;;;9.30;99.90;;;;;;5087800;28;20036;-64
2024/03/22 05:06:28;;;;;;;9.60;5.70;;;9.20;99.90;;;;;;5087830;28;20043;-66
2024/03/22 05:08:54;;;;;;;11.73;5.47;;;9.20;99.90;;;;;;5087599;28;20020;-68
2024/03/22 05:11:19;;;;;;;22.93;5.60;;;9.30;99.90;;;;;;5086959;28;20100;-64
2024/03/22 05:13:46;;;;;;;7.27;4.17;;;9.20;99.90;;;;;;5087133;28;20067;-64
2024/03/22 05:16:12;;;;;;;11.00;4.60;;;9.30;99.90;;;;;;5086862;28;20055;-63
2024/03/22 05:18:38;;;;;;;11.10;4.68;;;9.20;99.90;;;;;;5086750;28;20055;-65
2024/03/22 05:21:04;;;;;;;11.20;4.47;;;9.30;99.90;;;;;;5086665;28;20039;-66
2024/03/22 05:23:29;;;;;;;10.27;6.03;;;9.30;99.90;;;;;;5086220;28;20024;-63
2024/03/22 05:25:55;;;;;;;11.17;4.27;;;9.40;99.90;;;;;;5086101;28;20074;-68
2024/03/22 05:28:20;;;;;;;11.60;4.97;;;9.40;99.90;;;;;;5086249;28;20507;-65
2024/03/22 05:30:47;;;;;;;9.67;4.97;;;9.30;99.90;;;;;;5087122;28;20035;-63
2024/03/22 05:33:12;;;;;;;10.35;5.50;;;9.30;99.90;;;;;;5087082;28;20078;-64
2024/03/22 05:35:38;;;;;;;12.57;5.70;;;9.30;99.90;;;;;;5087032;28;20044;-64
2024/03/22 05:38:04;;;;;;;8.33;5.13;;;9.30;99.90;;;;;;5085795;28;20032;-67
2024/03/22 05:40:29;;;;;;;16.10;6.03;;;9.20;99.90;;;;;;5085986;28;20036;-68
2024/03/22 05:42:55;;;;;;;13.43;6.20;;;9.20;99.90;;;;;;5084527;28;20619;-69
2024/03/22 05:45:20;;;;;;;10.47;4.97;;;9.30;99.90;;;;;;5086200;28;20040;-65
2024/03/22 05:47:46;;;;;;;13.20;5.33;;;9.30;99.90;;;;;;5086229;28;20016;-72
2024/03/22 05:50:14;;;;;;;7.40;5.38;;;9.20;99.90;;;;;;5086263;28;20032;-72
2024/03/22 05:52:40;;;;;;;7.93;5.32;;;9.20;99.90;;;;;;5086187;28;20028;-67
2024/03/22 05:55:06;;;;;;;13.80;5.73;;;9.30;99.90;;;;;;5086431;28;20036;-64
2024/03/22 05:57:31;;;;;;;11.70;5.68;;;9.40;99.90;;;;;;5087026;28;20081;-72
2024/03/22 05:59:57;;;;;;;18.80;7.03;;;9.40;99.90;;;;;;5091353;28;20776;-71
2024/03/22 06:02:23;;;;;;;11.90;5.57;;;9.40;99.90;;;;;;5086787;28;20682;-68
2024/03/22 06:04:48;;;;;;;14.65;6.70;;;9.40;99.90;;;;;;5085778;28;20138;-64
2024/03/22 06:07:16;;;;;;;9.47;5.90;;;9.50;99.90;;;;;;5085671;28;20115;-70
2024/03/22 06:09:48;;;;;;;11.55;6.10;;;9.60;99.90;;;;;;5085503;28;20032;-64
2024/03/22 06:12:17;;;;;;;11.73;5.20;;;9.70;99.90;;;;;;5085505;28;20020;-64
2024/03/22 06:14:44;;;;;;;15.82;6.40;;;9.70;99.90;;;;;;5083494;28;20368;-64
2024/03/22 06:17:10;;;;;;;13.40;5.88;;;9.80;99.90;;;;;;5085516;28;20043;-63
2024/03/22 06:19:36;;;;;;;11.80;7.22;;;9.80;99.90;;;;;;5085151;28;20110;-65
2024/03/22 06:22:02;;;;;;;11.25;6.03;;;9.80;99.90;;;;;;5085521;28;20024;-64
2024/03/22 06:24:28;;;;;;;12.50;6.88;;;9.90;99.90;;;;;;5085812;28;20043;-63
2024/03/22 06:26:54;;;;;;;11.65;6.35;;;10.00;99.90;;;;;;5086172;28;20028;-63
2024/03/22 06:29:19;;;;;;;13.50;6.20;;;10.10;99.90;;;;;;5085746;28;20032;-68
2024/03/22 06:31:45;;;;;;;22.97;6.60;;;10.40;99.90;;;;;;5085889;28;20167;-70
2024/03/22 06:34:11;;;;;;;10.90;5.70;;;10.60;99.90;;;;;;5085337;28;20136;-72
2024/03/22 06:36:36;;;;;;;12.10;6.47;;;10.60;99.90;;;;;;5085560;28;20039;-66
2024/03/22 06:39:06;;;;;;;9.70;5.50;;;10.60;99.90;;;;;;5084898;28;20032;-71
2024/03/22 06:41:32;;;;;;;11.55;5.38;;;10.70;99.90;;;;;;5084942;28;20035;-72
2024/03/22 06:43:58;;;;;;;10.10;5.93;;;10.70;99.90;;;;;;5085341;28;20031;-64
2024/03/22 06:46:24;;;;;;;15.00;5.83;;;10.70;99.90;;;;;;5085090;28;20036;-63
2024/03/22 06:48:50;;;;;;;13.30;5.95;;;10.80;99.90;;;;;;5085448;28;20441;-64
2024/03/22 06:51:16;;;;;;;12.88;6.30;;;10.90;99.90;;;;;;5085270;28;20032;-63
2024/03/22 06:53:41;;;;;;;13.27;6.97;;;11.00;99.90;;;;;;5085470;28;20399;-63
2024/03/22 06:56:08;;;;;;;11.03;5.27;;;11.00;99.90;;;;;;5085573;28;20100;-69
2024/03/22 06:58:36;;;;;;;11.02;6.07;;;11.00;99.90;;;;;;5084874;28;20042;-64
2024/03/22 07:01:01;;;;;;;12.88;6.00;;;10.90;99.90;;;;;;5084794;28;20089;-66
2024/03/22 07:03:27;;;;;;;11.77;6.23;;;11.00;99.90;;;;;;5085532;28;20020;-73
2024/03/22 07:05:53;;;;;;;11.23;6.57;;;11.20;99.90;;;;;;5085106;28;20032;-65
2024/03/22 07:08:18;;;;;;;16.47;5.73;;;11.50;99.90;;;;;;5084537;28;20042;-64
2024/03/22 07:10:45;;;;;;;14.03;6.10;;;11.60;99.90;;;;;;5085054;28;20675;-68
2024/03/22 07:13:10;;;;;;;;;;;11.90;99.90;;;;;;5085652;28;20115;-64
2024/03/22 07:15:36;;;;;;;14.52;6.15;;;12.10;99.90;;;;;;5083990;28;20041;-72
2024/03/22 07:18:03;;;;;;;16.13;6.80;;;12.50;99.90;;;;;;5085218;28;20024;-70
2024/03/22 07:20:28;;;;;;;11.18;5.93;;;13.30;99.90;;;;;;5085164;28;20097;-66
2024/03/22 07:22:54;;;;;;;13.57;6.00;;;14.30;97.40;;;;;;5085299;28;20149;-65
2024/03/22 07:25:20;;;;;;;12.23;6.07;;;14.70;95.10;;;;;;5085168;28;20024;-66
2024/03/22 07:27:47;;;;;;;9.03;5.83;;;15.70;93.50;;;;;;5084951;28;20024;-71
2024/03/22 07:30:13;;;;;;;20.70;6.47;;;15.50;91.20;;;;;;5084624;28;20028;-69
2024/03/22 07:32:38;;;;;;;17.30;5.80;;;15.20;92.00;;;;;;5086274;28;20535;-70
2024/03/22 07:35:04;;;;;;;13.23;6.10;;;15.10;92.20;;;;;;5085213;28;20043;-68
2024/03/22 07:37:30;;;;;;;11.02;6.05;;;15.00;92.70;;;;;;5084861;28;20028;-64
2024/03/22 07:39:55;;;;;;;17.27;5.77;;;15.80;91.20;;;;;;5084715;28;20036;-69
2024/03/22 07:42:21;;;;;;;23.67;6.20;;;17.10;88.60;;;;;;5084651;28;20040;-64
2024/03/22 07:44:47;;;;;;;9.80;5.03;;;18.30;86.60;;;;;;5084581;28;20047;-70
2024/03/22 07:47:12;;;;;;;9.90;5.27;;;18.60;80.90;;;;;;5088449;28;20047;-65
2024/03/22 07:49:38;;;;;;;10.93;6.83;;;18.40;79.10;;;;;;5088883;28;20032;-65
2024/03/22 07:52:04;;;;;;;13.50;6.37;;;18.60;78.50;;;;;;5088501;28;20036;-73
2024/03/22 07:54:30;;;;;;;12.95;6.00;;;18.30;81.20;;;;;;5087927;28;20110;-71
2024/03/22 07:56:56;;;;;;;16.23;6.73;;;18.60;79.30;;;;;;5087553;28;20104;-71
2024/03/22 07:59:21;;;;;;;11.13;7.50;;;18.80;81.70;;;;;;5087991;28;20105;-65
2024/03/22 08:01:48;;;;;;;13.30;6.60;;;19.00;80.10;;;;;;5087124;28;20032;-65
2024/03/22 08:04:13;;;;;;;14.07;6.47;;;19.80;78.30;;;;;;5087941;28;20024;-67
2024/03/22 08:06:39;;;;;;;13.93;7.73;;;20.10;78.40;;;;;;5088462;28;20032;-73
2024/03/22 08:09:04;;;;;;;10.23;7.03;;;20.40;74.50;;;;;;5089025;28;20024;-71
2024/03/22 08:11:30;;;;;;;9.43;6.83;;;19.80;73.80;;;;;;5088107;28;20056;-66
2024/03/22 08:14:01;;;;;;;13.43;7.68;;;19.00;78.60;;;;;;5087673;28;20047;-65
2024/03/22 08:16:28;;;;;;;14.82;8.23;;;19.50;76.80;;;;;;5087980;28;20078;-72
2024/03/22 08:18:53;;;;;;;15.82;8.35;;;19.80;76.20;;;;;;5088468;28;20032;-65
2024/03/22 08:21:19;;;;;;;12.93;7.03;;;19.70;76.60;;;;;;5088519;28;20028;-65
2024/03/22 08:23:45;;;;;;;18.95;7.82;;;21.00;75.30;;;;;;5088056;28;20020;-65
2024/03/22 08:26:10;;;;;;;18.80;7.57;;;21.80;71.70;;;;;;5088198;28;20426;-66
2024/03/22 08:28:36;;;;;;;16.73;7.37;;;22.10;70.80;;;;;;5088000;28;20024;-67
2024/03/22 08:31:05;;;;;;;15.00;8.77;;;22.20;67.90;;;;;;5087530;28;20832;-67
2024/03/22 08:33:31;;;;;;;22.65;8.73;;;23.10;66.70;;;;;;5087102;28;20032;-64
2024/03/22 08:35:57;;;;;;;21.02;9.40;;;23.70;66.40;;;;;;5087234;28;20020;-67
2024/03/22 08:38:23;;;;;;;12.40;9.10;;;23.90;63.30;;;;;;5086866;28;20518;-65
2024/03/22 08:40:50;;;;;;;16.33;8.93;;;24.70;64.10;;;;;;5087080;28;20043;-64
2024/03/22 08:43:16;;;;;;;24.85;9.90;;;24.40;65.30;;;;;;5087131;28;20542;-68
2024/03/22 08:45:42;;;;;;;18.60;7.95;;;25.40;62.80;;;;;;5087976;28;20052;-68
2024/03/22 08:48:08;;;;;;;14.70;9.97;;;26.20;61.50;;;;;;5087701;28;20448;-67
2024/03/22 08:50:37;;;;;;;17.98;11.02;;;25.50;60.10;;;;;;5087851;28;20266;-66
2024/03/22 08:53:04;;;;;;;20.55;8.98;;;24.10;64.20;;;;;;5087256;28;20622;-68
2024/03/22 08:55:30;;;;;;;16.92;8.25;;;24.50;62.50;;;;;;5087069;28;20115;-67
2024/03/22 08:57:56;;;;;;;11.85;6.70;;;23.70;63.60;;;;;;5087409;28;20122;-68
2024/03/22 09:00:21;;;;;;;10.95;7.15;;;23.80;63.90;;;;;;5087269;28;20472;-65
2024/03/22 09:02:47;;;;;;;11.65;6.32;;;23.70;64.00;;;;;;5087353;28;20077;-65
2024/03/22 09:05:13;;;;;;;26.35;10.10;;;24.00;64.40;;;;;;5088695;28;20753;-64
2024/03/22 09:07:38;;;;;;;12.15;6.63;;;24.20;63.40;;;;;;5088190;28;20147;-68
2024/03/22 09:10:06;;;;;;;9.63;6.95;;;24.40;61.70;;;;;;5087281;28;20517;-73
2024/03/22 09:12:31;;;;;;;27.38;6.78;;;23.80;63.00;;;;;;5087982;28;20020;-73
2024/03/22 09:14:57;;;;;;;11.10;6.40;;;25.10;62.70;;;;;;5086940;28;20031;-66
2024/03/22 09:17:22;;;;;;;12.88;6.72;;;25.40;60.70;;;;;;5087111;28;20488;-65
2024/03/22 09:19:48;;;;;;;10.50;6.43;;;26.70;59.10;;;;;;5087227;28;20115;-65
2024/03/22 09:22:14;;;;;;;22.23;6.43;;;27.90;58.60;;;;;;5086968;28;20027;-65
2024/03/22 09:24:40;;;;;;;16.75;6.00;;;27.60;55.30;;;;;;5086424;28;20410;-65
2024/03/22 09:27:08;;;;;;;14.70;5.43;;;28.70;55.50;;;;;;5085981;28;20079;-65
2024/03/22 09:29:35;;;;;;;7.97;4.88;;;28.40;57.60;;;;;;5085934;28;20032;-65
2024/03/22 09:32:01;;;;;;;15.20;5.45;;;28.60;57.70;;;;;;5086188;28;20668;-65
2024/03/22 09:34:26;;;;;;;9.65;5.57;;;28.10;56.10;;;;;;5086146;28;20059;-65
2024/03/22 09:36:52;;;;;;;10.10;5.53;;;27.40;57.90;;;;;;5085700;28;20476;-66
2024/03/22 09:39:17;;;;;;;;;;;26.90;57.00;;;;;;5087432;28;20415;-67
2024/03/22 09:41:44;;;;;;;9.50;5.72;;;26.80;56.10;;;;;;5087033;28;19998;-65
2024/03/22 09:44:16;;;;;;;11.70;5.90;;;26.40;57.10;;;;;;5086588;28;20082;-65
2024/03/22 09:46:42;;;;;;;11.57;5.60;;;26.40;59.40;;;;;;5086115;28;20515;-66
2024/03/22 09:49:12;;;;;;;11.85;5.60;;;26.50;59.20;;;;;;5086326;28;20028;-65
2024/03/22 09:51:39;;;;;;;6.88;4.97;;;27.70;55.80;;;;;;5085820;28;20361;-65
2024/03/22 09:54:05;;;;;;;8.80;5.25;;;28.70;56.70;;;;;;5085731;28;20042;-67
2024/03/22 09:56:30;;;;;;;;;;;28.60;55.20;;;;;;5086316;28;20078;-66
2024/03/22 09:58:57;;;;;;;8.60;5.50;;;29.40;55.50;;;;;;5085631;28;20394;-65
2024/03/22 10:01:26;;;;;;;10.10;5.00;;;29.60;53.50;;;;;;5085524;28;20028;-66
2024/03/22 10:03:52;;;;;;;7.85;4.90;;;29.10;53.00;;;;;;5085530;28;20050;-68
2024/03/22 10:06:18;;;;;;;;;;;28.30;54.00;;;;;;5086303;28;20032;-70
2024/03/22 10:08:44;;;;;;;12.05;4.22;;;27.40;55.30;;;;;;5085560;28;19904;-69
2024/03/22 10:11:10;;;;;;;;;;;26.60;56.40;;;;;;5086362;28;20027;-70
2024/03/22 10:13:36;;;;;;;8.30;3.88;;;25.30;57.50;;;;;;5086097;28;19962;-67
2024/03/22 10:16:02;;;;;;;7.05;3.83;;;25.10;57.50;;;;;;5086766;28;20031;-72
2024/03/22 10:18:28;;;;;;;7.50;3.78;;;25.10;55.70;;;;;;5085703;28;20039;-66
2024/03/22 10:21:04;;;;;;;8.23;3.60;;;25.90;55.70;;;;;;5085085;28;20124;-66
2024/03/22 10:23:31;;;;;;;5.55;3.00;;;25.90;54.20;;;;;;5085132;28;20021;-66
2024/03/22 10:25:58;;;;;;;4.93;3.30;;;25.50;55.50;;;;;;5085331;28;20430;-65
2024/03/22 10:28:27;;;;;;;11.13;3.53;;;25.90;53.20;;;;;;5085662;28;20838;-66
2024/03/22 10:30:53;;;;;;;5.93;3.15;;;26.10;51.70;;;;;;5085396;28;20027;-66
2024/03/22 10:33:25;;;;;;;8.38;3.53;;;26.00;53.90;;;;;;5085978;28;20101;-65
2024/03/22 10:35:54;;;;;;;5.32;3.13;;;24.90;53.30;;;;;;5086569;28;20418;-65
2024/03/22 10:38:21;;;;;;;10.07;3.65;;;24.20;56.10;;;;;;5085917;28;20027;-66
2024/03/22 10:40:47;;;;;;;11.10;3.22;;;23.70;55.80;;;;;;5085966;28;20032;-65
2024/03/22 10:43:14;;;;;;;6.07;2.83;;;23.50;56.90;;;;;;5085553;28;20055;-65
2024/03/22 10:45:41;;;;;;;16.83;3.28;;;23.00;55.80;;;;;;5085371;28;20484;-66
2024/03/22 10:48:11;;;;;;;4.50;2.55;;;23.30;57.40;;;;;;5085240;28;20021;-66
2024/03/22 10:50:41;;;;;;;11.98;3.03;;;24.00;56.00;;;;;;5084952;28;20028;-65
2024/03/22 10:53:13;;;;;;;5.05;2.80;;;23.90;57.30;;;;;;5084971;28;20053;-65
2024/03/22 10:55:43;;;;;;;4.30;1.92;;;23.50;55.80;;;;;;5084922;28;20052;-66
2024/03/22 10:58:21;;;;;;;7.05;2.10;;;22.80;56.30;;;;;;5084524;28;20660;-71
2024/03/22 11:00:46;;;;;;;4.95;2.10;;;23.60;56.30;;;;;;5084886;28;20102;-72
2024/03/22 11:03:15;;;;;;;10.65;2.20;;;23.90;54.70;;;;;;5084817;28;20032;-70
2024/03/22 11:05:48;;;;;;;10.98;2.50;;;23.60;57.80;;;;;;5084364;28;20043;-70
2024/03/22 11:08:26;;;;;;;3.13;1.40;;;23.90;56.40;;;;;;5084599;28;20127;-70
2024/03/22 11:10:53;;;;;;;4.03;2.00;;;23.40;55.00;;;;;;5084277;28;20023;-67
2024/03/22 11:13:19;;;;;;;5.65;2.58;;;23.10;57.10;;;;;;5084716;28;20442;-69
2024/03/22 11:15:47;;;;;;;;;;;24.20;55.20;;;;;;5083740;28;20070;-70
2024/03/22 11:18:12;;;;;;;3.30;2.08;;;24.50;54.00;;;;;;5084639;28;19904;-70
2024/03/22 11:20:38;;;;;;;3.07;1.63;;;23.40;56.90;;;;;;5089080;28;20028;-72
2024/03/22 11:23:05;;;;;;;2.15;1.45;;;21.90;58.80;;;;;;5088945;28;20274;-65
2024/03/22 11:25:33;;;;;;;8.65;1.80;;;21.50;58.90;;;;;;5088389;28;20493;-65
2024/03/22 11:28:01;;;;;;;3.40;1.90;;;21.20;57.80;;;;;;5088847;28;20028;-66
2024/03/22 11:30:29;;;;;;;2.42;1.60;;;21.60;59.50;;;;;;5089397;28;20024;-65
2024/03/22 11:32:54;;;;;;;4.07;1.92;;;21.70;59.50;;;;;;5089058;28;20043;-65
2024/03/22 11:35:20;;;;;;;3.90;1.80;;;21.40;59.40;;;;;;5089236;28;20399;-65
2024/03/22 11:37:46;;;;;;;3.05;1.83;;;21.40;61.20;;;;;;5104461;28;20028;-66
2024/03/22 11:40:12;;;;;;;1.50;1.40;;;21.60;58.00;;;;;;5088026;28;20875;-64
2024/03/22 11:42:42;;;;;;;3.10;1.58;;;21.80;57.60;;;;;;5088564;28;20054;-66
2024/03/22 11:45:13;;;;;;;3.50;1.83;;;21.70;57.60;;;;;;5086972;28;20134;-65
2024/03/22 11:47:39;;;;;;;2.75;1.60;;;21.50;55.50;;;;;;5088135;28;20051;-65
2024/03/22 11:50:05;;;;;;;4.22;1.60;;;21.50;59.80;;;;;;5088351;28;20092;-64
2024/03/22 11:52:31;;;;;;;4.45;1.70;;;21.80;58.30;;;;;;5087479;28;20031;-68
2024/03/22 11:54:57;;;;;;;3.95;1.90;;;21.70;60.60;;;;;;5087796;28;20404;-68
2024/03/22 11:57:23;;;;;;;2.55;1.27;;;22.10;55.30;;;;;;5088293;28;20089;-65
2024/03/22 11:59:50;;;;;;;3.35;1.58;;;22.10;56.40;;;;;;5088734;28;20115;-69
2024/03/22 12:02:16;;;;;;;6.90;2.45;;;21.90;55.60;;;;;;5088236;28;20028;-65
2024/03/22 12:04:47;;;;;;;4.63;1.43;;;21.90;58.10;;;;;;5089054;28;20092;-65
2024/03/22 12:07:14;;;;;;;6.95;1.40;;;22.00;56.60;;;;;;5089739;28;20262;-64
2024/03/22 12:09:43;;;;;;;;;;;22.20;56.30;;;;;;5088781;28;20023;-66
2024/03/22 12:12:11;;;;;;;5.75;1.13;;;22.10;54.00;;;;;;5088251;28;19904;-65
2024/03/22 12:14:38;;;;;;;3.83;1.38;;;22.10;54.10;;;;;;5087893;28;20024;-68
2024/03/22 12:17:04;;;;;;;3.05;1.27;;;22.00;53.00;;;;;;5087599;28;20731;-66
2024/03/22 12:19:29;;;;;;;2.28;1.38;;;22.10;52.90;;;;;;5088048;28;20039;-66
2024/03/22 12:21:55;;;;;;;2.00;1.17;;;22.00;53.30;;;;;;5088040;28;20042;-69
2024/03/22 12:24:23;;;;;;;9.05;1.75;;;21.90;54.80;;;;;;5088512;28;20073;-71
2024/03/22 12:26:49;;;;;;;2.65;1.58;;;21.90;52.50;;;;;;5086939;28;20036;-65
2024/03/22 12:29:18;;;;;;;2.38;1.20;;;21.90;54.40;;;;;;5088290;28;20127;-65
2024/03/22 12:31:44;;;;;;;3.47;1.67;;;21.90;52.60;;;;;;5087395;28;20041;-69
2024/03/22 12:34:10;;;;;;;9.02;1.80;;;21.90;52.30;;;;;;5088091;28;20123;-67
2024/03/22 12:36:36;;;;;;;8.05;1.40;;;22.20;57.00;;;;;;5088036;28;20059;-68
2024/03/22 12:39:02;;;;;;;3.55;1.40;;;22.00;53.00;;;;;;5087483;28;20515;-65
2024/03/22 12:41:29;;;;;;;2.65;1.38;;;22.10;54.60;;;;;;5086977;28;20385;-68